Aviation Digital Data Service (ADDS)

Output produced by METARs form (0144 UTC 21 September 2018)
found at http://aviationweather.gov/metar/data/
 
METAR text: KTEX 210135Z AUTO 28005KT 10SM CLR 15/M01 A3030 RMK AO2
Conditions at: KTEX (TELLURIDE REGION, CO, US) observed 0135 UTC 21 September 2018
Temperature: 15.0°C (59°F)
Dewpoint: -1.0°C (30°F) [RH = 33%]
Pressure (altimeter): 30.30 inches Hg (1026.2 mb)
Winds: from the W (280 degrees) at 6 MPH (5 knots; 2.6 m/s)
Visibility: 10 or more miles (16+ km)
Ceiling: at least 12,000 feet AGL
Clouds: sky clear below 12,000 feet AGL
Weather: automated observation with no human augmentation;
there may or may not be significant weather present at this time

METAR text: KTEX 210115Z AUTO 30006KT 10SM CLR 15/M01 A3030 RMK AO2
Conditions at: KTEX (TELLURIDE REGION, CO, US) observed 0115 UTC 21 September 2018
Temperature: 15.0°C (59°F)
Dewpoint: -1.0°C (30°F) [RH = 33%]
Pressure (altimeter): 30.30 inches Hg (1026.2 mb)
Winds: from the WNW (300 degrees) at 7 MPH (6 knots; 3.1 m/s)
Visibility: 10 or more miles (16+ km)
Ceiling: at least 12,000 feet AGL
Clouds: sky clear below 12,000 feet AGL
Weather: automated observation with no human augmentation;
there may or may not be significant weather present at this time

METAR text: KTEX 210055Z AUTO 27009KT 10SM CLR 16/M01 A3029 RMK AO2
Conditions at: KTEX (TELLURIDE REGION, CO, US) observed 0055 UTC 21 September 2018
Temperature: 16.0°C (61°F)
Dewpoint: -1.0°C (30°F) [RH = 31%]
Pressure (altimeter): 30.29 inches Hg (1025.8 mb)
Winds: from the W (270 degrees) at 10 MPH (9 knots; 4.6 m/s)
Visibility: 10 or more miles (16+ km)
Ceiling: at least 12,000 feet AGL
Clouds: sky clear below 12,000 feet AGL
Weather: automated observation with no human augmentation;
there may or may not be significant weather present at this time

Forecast for: KTEX (TELLURIDE REGION, CO, US)
Text: KTEX 210117Z 2101/2124 27009KT P6SM SKC
Forecast period: 0100 to 0400 UTC 21 September 2018
Forecast type: FROM: standard forecast or significant change
Winds: from the W (270 degrees) at 10 MPH (9 knots; 4.6 m/s)
Visibility: 6 or more miles 10+ km)
Clouds: clear skies
Weather: no significant weather forecast for this period
Text: FM210400 13005KT P6SM SKC
Forecast period: 0400 to 0600 UTC 21 September 2018
Forecast type: FROM: standard forecast or significant change
Winds: from the SE (130 degrees) at 6 MPH (5 knots; 2.6 m/s)
Visibility: 6 or more miles 10+ km)
Clouds: clear skies
Weather: no significant weather forecast for this period
Text: FM210600 10006KT P6SM SKC
Forecast period: 0600 to 1300 UTC 21 September 2018
Forecast type: FROM: standard forecast or significant change
Winds: from the E (100 degrees) at 7 MPH (6 knots; 3.1 m/s)
Visibility: 6 or more miles 10+ km)
Clouds: clear skies
Weather: no significant weather forecast for this period
Text: FM211300 14005KT P6SM SKC
Forecast period: 1300 UTC 21 September 2018 to 0000 UTC 22 September 2018
Forecast type: FROM: standard forecast or significant change
Winds: from the SE (140 degrees) at 6 MPH (5 knots; 2.6 m/s)
Visibility: 6 or more miles 10+ km)
Clouds: clear skies
Weather: no significant weather forecast for this period